Stovall, North Carolina
Current Conditions -  °F | °C
As of 11:15 AM on Thursday 27 Nov 2014 (Local Time) from KHNZ Reporting Station
Light Rain Light Rain  
Wind Chill: 42°   Ceiling: 600
Heat Index: 42°   Visibility: 10mi
Dew Point: 39°   Wind: 0mph
Humidity: 90%   Direction: NA
Pressure: 30.04"   Gusts: NA
Location:  36.45°N, 78.57°W
Report Text: KHNZ 271615Z AUTO 00000KT 10SM -RA BKN006 BKN033 OVC060 05/04 A3004 RMK AO2 T00540039
Loading
Personal Weather Stations






























Interactive Weather Map New forecast layout! Learn more

10-Day Weather Forecast

Advertisements
Track Severe Weather on mobile